メインページ
METAR-TAF:

METAR-TAF

空港 :

Yüksekova, トルコ

緯度: 37-33-06N, 経度: 44-14-01E, 海抜: 1950m

現時点の気象観測

当レポートは23分前の10:50(UTC)に作成
無風
気温 3°C
湿度 70%
気圧 1019 hPa
視程: 3100m
高度1500ftの雲は散在している
高度3000ftの千切れ雲あり

METAR: LTCW 221050Z 00000KT 3100 BR SCT015 BKN030 03/M02 Q1019

時間: 14:13 (11:13 UTC)

予報

当レポートは3時間33分前の07:40(UTC)に作成
予報は22日の 09時(UTC)から 22日の 18時(UTC)まで有効
変向風 2kt
視程: 3100m
高度1000ftの雲はほとんどない
高度3000ftの雲は散在している
高度7000ftの千切れ雲あり

TAF: LTCW 220740Z 2209/2218 VRB02KT 3100 BR FEW010 SCT030 BKN070

4,000以上の空港の気象観測と天気予報(METAR報とTAF報)

利用可能な観測所は地図上に黄色い丸と赤い丸で示す。

丸の上にカーソルを重ねると観測所名を参照できる。

次にクリックすると気象観測と天気予報を参照できる。

マップの切り替え:黒色「×」印の緑ボタンをクリックして拡大、「-」印の緑ボタンをクリックして縮小、緑色の三角印をクリックして隣りの地図に切り替え


METAR-TAF: